sensor_id;sensor_type;location;lat;lon;timestamp;pressure;altitude;pressure_sealevel;temperature;humidity
55301;BME280;58302;51.446;-2.000;2023-06-10T00:02:08;100450.31;;;13.37;100.00
55301;BME280;58302;51.446;-2.000;2023-06-10T00:04:35;100451.19;;;13.28;100.00
55301;BME280;58302;51.446;-2.000;2023-06-10T00:07:04;100450.16;;;13.18;100.00
55301;BME280;58302;51.446;-2.000;2023-06-10T00:09:37;100449.88;;;13.15;100.00
55301;BME280;58302;51.446;-2.000;2023-06-10T00:12:05;100455.88;;;13.17;100.00
55301;BME280;58302;51.446;-2.000;2023-06-10T00:14:33;100455.34;;;13.15;100.00
55301;BME280;58302;51.446;-2.000;2023-06-10T00:16:59;100452.94;;;13.08;100.00
55301;BME280;58302;51.446;-2.000;2023-06-10T00:19:25;100450.78;;;13.00;100.00
55301;BME280;58302;51.446;-2.000;2023-06-10T00:21:56;100454.34;;;12.96;100.00
55301;BME280;58302;51.446;-2.000;2023-06-10T00:24:22;100462.53;;;12.96;100.00
55301;BME280;58302;51.446;-2.000;2023-06-10T00:26:48;100458.19;;;12.89;100.00
55301;BME280;58302;51.446;-2.000;2023-06-10T00:29:14;100457.69;;;12.87;100.00
55301;BME280;58302;51.446;-2.000;2023-06-10T00:31:40;100469.16;;;12.79;100.00
55301;BME280;58302;51.446;-2.000;2023-06-10T00:34:07;100467.84;;;12.72;100.00
55301;BME280;58302;51.446;-2.000;2023-06-10T00:36:33;100465.94;;;12.67;100.00
55301;BME280;58302;51.446;-2.000;2023-06-10T00:39:01;100467.31;;;12.64;100.00
55301;BME280;58302;51.446;-2.000;2023-06-10T00:41:27;100467.34;;;12.59;100.00
55301;BME280;58302;51.446;-2.000;2023-06-10T00:43:53;100469.28;;;12.54;100.00
55301;BME280;58302;51.446;-2.000;2023-06-10T00:46:20;100474.16;;;12.52;100.00
55301;BME280;58302;51.446;-2.000;2023-06-10T00:48:46;100472.53;;;12.51;100.00
55301;BME280;58302;51.446;-2.000;2023-06-10T00:51:12;100476.38;;;12.45;100.00
55301;BME280;58302;51.446;-2.000;2023-06-10T00:53:40;100473.94;;;12.43;100.00
55301;BME280;58302;51.446;-2.000;2023-06-10T00:56:07;100473.66;;;12.34;100.00
55301;BME280;58302;51.446;-2.000;2023-06-10T00:58:33;100478.88;;;12.26;100.00
55301;BME280;58302;51.446;-2.000;2023-06-10T01:00:59;100474.78;;;12.23;100.00
55301;BME280;58302;51.446;-2.000;2023-06-10T01:03:26;100490.59;;;12.26;100.00
55301;BME280;58302;51.446;-2.000;2023-06-10T01:05:58;100495.25;;;12.21;100.00
55301;BME280;58302;51.446;-2.000;2023-06-10T01:11:00;100503.13;;;12.22;100.00
55301;BME280;58302;51.446;-2.000;2023-06-10T01:13:28;100507.50;;;12.23;100.00
55301;BME280;58302;51.446;-2.000;2023-06-10T01:15:56;100508.31;;;12.19;100.00
55301;BME280;58302;51.446;-2.000;2023-06-10T01:18:22;100505.59;;;12.13;100.00
55301;BME280;58302;51.446;-2.000;2023-06-10T01:20:49;100514.03;;;12.17;100.00
55301;BME280;58302;51.446;-2.000;2023-06-10T01:23:15;100532.56;;;12.20;100.00
55301;BME280;58302;51.446;-2.000;2023-06-10T01:25:47;100530.38;;;12.17;100.00
55301;BME280;58302;51.446;-2.000;2023-06-10T01:28:24;100538.28;;;12.19;100.00
55301;BME280;58302;51.446;-2.000;2023-06-10T01:31:31;100541.00;;;12.19;100.00
55301;BME280;58302;51.446;-2.000;2023-06-10T01:34:00;100550.56;;;12.21;100.00
55301;BME280;58302;51.446;-2.000;2023-06-10T01:36:28;100554.38;;;12.25;100.00
55301;BME280;58302;51.446;-2.000;2023-06-10T01:38:55;100553.28;;;12.31;100.00
55301;BME280;58302;51.446;-2.000;2023-06-10T01:41:22;100552.19;;;12.32;100.00
55301;BME280;58302;51.446;-2.000;2023-06-10T01:43:48;100545.34;;;12.30;100.00
55301;BME280;58302;51.446;-2.000;2023-06-10T01:46:15;100546.97;;;12.36;100.00
55301;BME280;58302;51.446;-2.000;2023-06-10T01:48:45;100544.00;;;12.37;100.00
55301;BME280;58302;51.446;-2.000;2023-06-10T01:51:11;100546.72;;;12.43;100.00
55301;BME280;58302;51.446;-2.000;2023-06-10T01:53:37;100541.78;;;12.45;100.00
55301;BME280;58302;51.446;-2.000;2023-06-10T01:56:03;100538.78;;;12.46;100.00
55301;BME280;58302;51.446;-2.000;2023-06-10T01:58:29;100544.78;;;12.53;100.00
55301;BME280;58302;51.446;-2.000;2023-06-10T02:00:55;100537.66;;;12.57;100.00
55301;BME280;58302;51.446;-2.000;2023-06-10T02:03:21;100545.84;;;12.62;100.00
55301;BME280;58302;51.446;-2.000;2023-06-10T02:05:46;100545.00;;;12.67;100.00
55301;BME280;58302;51.446;-2.000;2023-06-10T02:08:12;100537.91;;;12.76;100.00
55301;BME280;58302;51.446;-2.000;2023-06-10T02:10:38;100536.00;;;12.77;100.00
55301;BME280;58302;51.446;-2.000;2023-06-10T02:13:04;100536.78;;;12.82;100.00
55301;BME280;58302;51.446;-2.000;2023-06-10T02:15:30;100531.88;;;12.84;100.00
55301;BME280;58302;51.446;-2.000;2023-06-10T02:17:56;100519.59;;;12.87;100.00
55301;BME280;58302;51.446;-2.000;2023-06-10T02:20:23;100522.03;;;12.88;100.00
55301;BME280;58302;51.446;-2.000;2023-06-10T02:22:49;100516.03;;;12.91;100.00
55301;BME280;58302;51.446;-2.000;2023-06-10T02:25:15;100528.00;;;12.96;100.00
55301;BME280;58302;51.446;-2.000;2023-06-10T02:27:41;100524.22;;;12.97;100.00
55301;BME280;58302;51.446;-2.000;2023-06-10T02:30:07;100521.72;;;12.95;100.00
55301;BME280;58302;51.446;-2.000;2023-06-10T02:32:36;100532.91;;;12.99;100.00
55301;BME280;58302;51.446;-2.000;2023-06-10T02:35:02;100521.44;;;13.02;100.00
55301;BME280;58302;51.446;-2.000;2023-06-10T02:37:28;100523.91;;;13.03;100.00
55301;BME280;58302;51.446;-2.000;2023-06-10T02:39:54;100523.09;;;13.03;100.00
55301;BME280;58302;51.446;-2.000;2023-06-10T02:42:20;100525.25;;;13.06;100.00
55301;BME280;58302;51.446;-2.000;2023-06-10T02:44:46;100526.06;;;13.06;100.00
55301;BME280;58302;51.446;-2.000;2023-06-10T02:47:12;100527.97;;;13.06;100.00
55301;BME280;58302;51.446;-2.000;2023-06-10T02:49:38;100522.53;;;13.01;100.00
55301;BME280;58302;51.446;-2.000;2023-06-10T02:52:04;100528.78;;;13.01;100.00
55301;BME280;58302;51.446;-2.000;2023-06-10T02:54:30;100531.81;;;13.00;100.00
55301;BME280;58302;51.446;-2.000;2023-06-10T02:56:56;100526.06;;;13.01;100.00
55301;BME280;58302;51.446;-2.000;2023-06-10T02:59:22;100530.69;;;13.06;100.00
55301;BME280;58302;51.446;-2.000;2023-06-10T03:01:48;100529.59;;;13.07;100.00
55301;BME280;58302;51.446;-2.000;2023-06-10T03:04:14;100518.16;;;13.05;100.00
55301;BME280;58302;51.446;-2.000;2023-06-10T03:06:40;100519.78;;;13.06;100.00
55301;BME280;58302;51.446;-2.000;2023-06-10T03:09:11;100519.25;;;13.04;100.00
55301;BME280;58302;51.446;-2.000;2023-06-10T03:11:37;100518.44;;;13.03;100.00
55301;BME280;58302;51.446;-2.000;2023-06-10T03:14:03;100511.63;;;13.01;100.00
55301;BME280;58302;51.446;-2.000;2023-06-10T03:16:29;100509.44;;;13.03;100.00
55301;BME280;58302;51.446;-2.000;2023-06-10T03:18:58;100514.91;;;13.03;100.00
55301;BME280;58302;51.446;-2.000;2023-06-10T03:21:24;100515.72;;;13.03;100.00
55301;BME280;58302;51.446;-2.000;2023-06-10T03:23:50;100515.16;;;13.01;100.00
55301;BME280;58302;51.446;-2.000;2023-06-10T03:26:16;100521.72;;;13.00;100.00
55301;BME280;58302;51.446;-2.000;2023-06-10T03:28:42;100520.88;;;13.05;100.00
55301;BME280;58302;51.446;-2.000;2023-06-10T03:31:08;100517.88;;;13.06;100.00
55301;BME280;58302;51.446;-2.000;2023-06-10T03:33:34;100512.41;;;13.06;100.00
55301;BME280;58302;51.446;-2.000;2023-06-10T03:36:00;100513.81;;;13.04;100.00
55301;BME280;58302;51.446;-2.000;2023-06-10T03:38:26;100518.69;;;13.02;100.00
55301;BME280;58302;51.446;-2.000;2023-06-10T03:40:51;100519.81;;;13.01;100.00
55301;BME280;58302;51.446;-2.000;2023-06-10T03:43:17;100520.88;;;13.05;100.00
55301;BME280;58302;51.446;-2.000;2023-06-10T03:45:43;100511.59;;;13.06;100.00
55301;BME280;58302;51.446;-2.000;2023-06-10T03:48:09;100516.75;;;13.07;100.00
55301;BME280;58302;51.446;-2.000;2023-06-10T03:50:36;100508.34;;;13.04;100.00
55301;BME280;58302;51.446;-2.000;2023-06-10T03:53:02;100511.34;;;13.02;100.00
55301;BME280;58302;51.446;-2.000;2023-06-10T03:55:28;100508.88;;;13.01;100.00
55301;BME280;58302;51.446;-2.000;2023-06-10T03:57:54;100507.25;;;13.00;100.00
55301;BME280;58302;51.446;-2.000;2023-06-10T04:00:20;100510.28;;;12.98;100.00
55301;BME280;58302;51.446;-2.000;2023-06-10T04:02:47;100511.09;;;12.99;100.00
55301;BME280;58302;51.446;-2.000;2023-06-10T04:05:19;100504.25;;;13.01;100.00
55301;BME280;58302;51.446;-2.000;2023-06-10T04:07:47;100506.16;;;13.01;100.00
55301;BME280;58302;51.446;-2.000;2023-06-10T04:10:14;100502.31;;;13.02;100.00
55301;BME280;58302;51.446;-2.000;2023-06-10T04:12:41;100482.72;;;13.00;100.00
55301;BME280;58302;51.446;-2.000;2023-06-10T04:15:07;100495.00;;;12.97;100.00
55301;BME280;58302;51.446;-2.000;2023-06-10T04:17:34;100496.63;;;12.98;100.00
55301;BME280;58302;51.446;-2.000;2023-06-10T04:20:00;100491.47;;;12.97;100.00
55301;BME280;58302;51.446;-2.000;2023-06-10T04:22:26;100499.66;;;12.97;100.00
55301;BME280;58302;51.446;-2.000;2023-06-10T04:24:52;100492.81;;;12.94;100.00
55301;BME280;58302;51.446;-2.000;2023-06-10T04:27:19;100510.81;;;12.95;100.00
55301;BME280;58302;51.446;-2.000;2023-06-10T04:29:45;100497.75;;;12.97;100.00
55301;BME280;58302;51.446;-2.000;2023-06-10T04:32:11;100501.25;;;13.03;100.00
55301;BME280;58302;51.446;-2.000;2023-06-10T04:34:36;100492.22;;;13.07;100.00
55301;BME280;58302;51.446;-2.000;2023-06-10T04:37:05;100490.84;;;13.10;100.00
55301;BME280;58302;51.446;-2.000;2023-06-10T04:39:31;100496.00;;;13.11;100.00
55301;BME280;58302;51.446;-2.000;2023-06-10T04:41:58;100489.19;;;13.14;100.00
55301;BME280;58302;51.446;-2.000;2023-06-10T04:44:24;100491.91;;;13.19;100.00
55301;BME280;58302;51.446;-2.000;2023-06-10T04:46:50;100481.53;;;13.16;100.00
55301;BME280;58302;51.446;-2.000;2023-06-10T04:49:16;100491.94;;;13.14;100.00
55301;BME280;58302;51.446;-2.000;2023-06-10T04:51:42;100490.53;;;13.16;100.00
55301;BME280;58302;51.446;-2.000;2023-06-10T04:54:08;100489.72;;;13.16;100.00
55301;BME280;58302;51.446;-2.000;2023-06-10T04:56:34;100492.44;;;13.21;100.00
55301;BME280;58302;51.446;-2.000;2023-06-10T04:59:00;100478.50;;;13.23;100.00
55301;BME280;58302;51.446;-2.000;2023-06-10T05:01:26;100485.31;;;13.30;100.00
55301;BME280;58302;51.446;-2.000;2023-06-10T05:03:53;100485.28;;;13.35;100.00
55301;BME280;58302;51.446;-2.000;2023-06-10T05:06:19;100482.50;;;13.40;100.00
55301;BME280;58302;51.446;-2.000;2023-06-10T05:08:45;100481.34;;;13.52;100.00
55301;BME280;58302;51.446;-2.000;2023-06-10T05:11:11;100469.25;;;13.63;100.00
55301;BME280;58302;51.446;-2.000;2023-06-10T05:13:37;100457.94;;;13.75;100.00
55301;BME280;58302;51.446;-2.000;2023-06-10T05:16:03;100454.53;;;13.88;100.00
55301;BME280;58302;51.446;-2.000;2023-06-10T05:18:29;100446.78;;;14.00;100.00
55301;BME280;58302;51.446;-2.000;2023-06-10T05:20:55;100439.00;;;13.83;100.00
55301;BME280;58302;51.446;-2.000;2023-06-10T05:23:21;100440.59;;;13.89;100.00
55301;BME280;58302;51.446;-2.000;2023-06-10T05:25:47;100434.53;;;13.97;100.00
55301;BME280;58302;51.446;-2.000;2023-06-10T05:28:13;100432.91;;;13.96;100.00
55301;BME280;58302;51.446;-2.000;2023-06-10T05:30:39;100426.22;;;14.08;100.00
55301;BME280;58302;51.446;-2.000;2023-06-10T05:33:05;100431.25;;;14.24;100.00
55301;BME280;58302;51.446;-2.000;2023-06-10T05:35:31;100426.97;;;14.37;100.00
55301;BME280;58302;51.446;-2.000;2023-06-10T05:37:57;100417.78;;;14.57;100.00
55301;BME280;58302;51.446;-2.000;2023-06-10T05:40:23;100408.53;;;14.72;100.00
55301;BME280;58302;51.446;-2.000;2023-06-10T05:42:49;100401.69;;;14.74;100.00
55301;BME280;58302;51.446;-2.000;2023-06-10T05:45:15;100397.19;;;14.84;100.00
55301;BME280;58302;51.446;-2.000;2023-06-10T05:47:41;100401.75;;;14.88;100.00
55301;BME280;58302;51.446;-2.000;2023-06-10T05:50:08;100392.28;;;14.99;100.00
55301;BME280;58302;51.446;-2.000;2023-06-10T05:52:37;100392.59;;;15.17;100.00
55301;BME280;58302;51.446;-2.000;2023-06-10T05:55:06;100388.13;;;15.21;100.00
55301;BME280;58302;51.446;-2.000;2023-06-10T05:57:32;100398.56;;;15.19;100.00
55301;BME280;58302;51.446;-2.000;2023-06-10T05:59:58;100396.06;;;15.22;100.00
55301;BME280;58302;51.446;-2.000;2023-06-10T06:02:24;100390.03;;;15.39;100.00
55301;BME280;58302;51.446;-2.000;2023-06-10T06:04:50;100391.63;;;15.59;100.00
55301;BME280;58302;51.446;-2.000;2023-06-10T06:07:16;100389.63;;;15.65;100.00
55301;BME280;58302;51.446;-2.000;2023-06-10T06:09:42;100390.78;;;15.45;100.00
55301;BME280;58302;51.446;-2.000;2023-06-10T06:12:08;100397.66;;;15.42;100.00
55301;BME280;58302;51.446;-2.000;2023-06-10T06:14:38;100392.41;;;15.46;100.00
55301;BME280;58302;51.446;-2.000;2023-06-10T06:17:07;100407.72;;;15.66;100.00
55301;BME280;58302;51.446;-2.000;2023-06-10T06:19:33;100405.94;;;15.89;100.00
55301;BME280;58302;51.446;-2.000;2023-06-10T06:21:59;100400.78;;;16.01;100.00
55301;BME280;58302;51.446;-2.000;2023-06-10T06:24:25;100396.41;;;16.14;100.00
55301;BME280;58302;51.446;-2.000;2023-06-10T06:26:51;100388.78;;;15.97;100.00
55301;BME280;58302;51.446;-2.000;2023-06-10T06:29:18;100397.84;;;15.65;100.00
55301;BME280;58302;51.446;-2.000;2023-06-10T06:31:43;100404.88;;;15.71;100.00
55301;BME280;58302;51.446;-2.000;2023-06-10T06:34:09;100406.22;;;15.87;100.00
55301;BME280;58302;51.446;-2.000;2023-06-10T06:36:35;100406.97;;;16.06;100.00
55301;BME280;58302;51.446;-2.000;2023-06-10T06:39:01;100402.91;;;16.31;100.00
55301;BME280;58302;51.446;-2.000;2023-06-10T06:41:28;100397.84;;;16.39;100.00
55301;BME280;58302;51.446;-2.000;2023-06-10T06:43:54;100388.59;;;15.93;100.00
55301;BME280;58302;51.446;-2.000;2023-06-10T06:46:21;100395.78;;;15.89;100.00
55301;BME280;58302;51.446;-2.000;2023-06-10T06:48:49;100399.28;;;16.22;100.00
55301;BME280;58302;51.446;-2.000;2023-06-10T06:51:15;100397.03;;;16.66;100.00
55301;BME280;58302;51.446;-2.000;2023-06-10T06:53:41;100395.56;;;16.96;100.00
55301;BME280;58302;51.446;-2.000;2023-06-10T06:56:11;100381.38;;;17.16;100.00
55301;BME280;58302;51.446;-2.000;2023-06-10T06:58:37;100384.94;;;17.03;100.00
55301;BME280;58302;51.446;-2.000;2023-06-10T07:01:03;100387.53;;;17.22;100.00
55301;BME280;58302;51.446;-2.000;2023-06-10T07:03:30;100385.69;;;17.76;100.00
55301;BME280;58302;51.446;-2.000;2023-06-10T07:05:56;100389.72;;;18.09;100.00
55301;BME280;58302;51.446;-2.000;2023-06-10T07:08:22;100385.16;;;18.44;100.00
55301;BME280;58302;51.446;-2.000;2023-06-10T07:10:48;100384.28;;;18.75;100.00
55301;BME280;58302;51.446;-2.000;2023-06-10T07:13:15;100373.31;;;19.01;100.00
55301;BME280;58302;51.446;-2.000;2023-06-10T07:15:41;100375.88;;;19.15;100.00
55301;BME280;58302;51.446;-2.000;2023-06-10T07:18:07;100379.75;;;19.05;100.00
55301;BME280;58302;51.446;-2.000;2023-06-10T07:20:33;100376.84;;;19.36;100.00
55301;BME280;58302;51.446;-2.000;2023-06-10T07:22:58;100374.91;;;19.11;100.00
55301;BME280;58302;51.446;-2.000;2023-06-10T07:25:24;100382.84;;;18.86;100.00
55301;BME280;58302;51.446;-2.000;2023-06-10T07:27:50;100376.66;;;18.72;100.00
55301;BME280;58302;51.446;-2.000;2023-06-10T07:30:16;100373.28;;;18.75;100.00
55301;BME280;58302;51.446;-2.000;2023-06-10T07:32:42;100364.84;;;18.89;100.00
55301;BME280;58302;51.446;-2.000;2023-06-10T07:35:10;100374.75;;;19.07;100.00
55301;BME280;58302;51.446;-2.000;2023-06-10T07:37:39;100371.34;;;19.19;100.00
55301;BME280;58302;51.446;-2.000;2023-06-10T07:40:05;100378.47;;;19.63;100.00
55301;BME280;58302;51.446;-2.000;2023-06-10T07:42:33;100371.41;;;19.83;100.00
55301;BME280;58302;51.446;-2.000;2023-06-10T07:45:00;100370.06;;;18.90;100.00
55301;BME280;58302;51.446;-2.000;2023-06-10T07:47:26;100372.63;;;18.78;100.00
55301;BME280;58302;51.446;-2.000;2023-06-10T07:49:52;100371.69;;;19.09;100.00
55301;BME280;58302;51.446;-2.000;2023-06-10T07:52:18;100375.19;;;19.61;100.00
55301;BME280;58302;51.446;-2.000;2023-06-10T07:54:43;100373.06;;;20.22;100.00
55301;BME280;58302;51.446;-2.000;2023-06-10T07:57:09;100367.34;;;20.66;100.00
55301;BME280;58302;51.446;-2.000;2023-06-10T07:59:35;100373.47;;;20.71;100.00
55301;BME280;58302;51.446;-2.000;2023-06-10T08:02:01;100363.53;;;21.54;100.00
55301;BME280;58302;51.446;-2.000;2023-06-10T08:04:27;100365.06;;;22.21;100.00
55301;BME280;58302;51.446;-2.000;2023-06-10T08:06:53;100365.50;;;22.35;100.00
55301;BME280;58302;51.446;-2.000;2023-06-10T08:09:19;100378.09;;;22.21;100.00
55301;BME280;58302;51.446;-2.000;2023-06-10T08:11:47;100385.56;;;22.81;100.00
55301;BME280;58302;51.446;-2.000;2023-06-10T08:14:13;100391.13;;;23.22;100.00
55301;BME280;58302;51.446;-2.000;2023-06-10T08:16:39;100390.41;;;23.65;100.00
55301;BME280;58302;51.446;-2.000;2023-06-10T08:19:05;100390.78;;;23.79;100.00
55301;BME280;58302;51.446;-2.000;2023-06-10T08:21:31;100398.22;;;24.23;100.00
55301;BME280;58302;51.446;-2.000;2023-06-10T08:23:57;100396.84;;;24.80;100.00
55301;BME280;58302;51.446;-2.000;2023-06-10T08:26:23;100395.97;;;25.49;100.00
55301;BME280;58302;51.446;-2.000;2023-06-10T08:28:49;100397.41;;;25.43;100.00
55301;BME280;58302;51.446;-2.000;2023-06-10T08:31:15;100392.47;;;25.33;100.00
55301;BME280;58302;51.446;-2.000;2023-06-10T08:33:42;100410.06;;;24.67;100.00
55301;BME280;58302;51.446;-2.000;2023-06-10T08:36:08;100404.63;;;25.06;100.00
55301;BME280;58302;51.446;-2.000;2023-06-10T08:38:34;100409.78;;;25.65;100.00
55301;BME280;58302;51.446;-2.000;2023-06-10T08:41:00;100404.50;;;25.99;100.00
55301;BME280;58302;51.446;-2.000;2023-06-10T08:43:43;100404.47;;;26.22;100.00
55301;BME280;58302;51.446;-2.000;2023-06-10T08:46:10;100397.41;;;26.28;100.00
55301;BME280;58302;51.446;-2.000;2023-06-10T08:48:42;100396.88;;;26.68;100.00
55301;BME280;58302;51.446;-2.000;2023-06-10T08:51:10;100395.56;;;27.15;100.00
55301;BME280;58302;51.446;-2.000;2023-06-10T08:53:38;100393.41;;;27.35;100.00
55301;BME280;58302;51.446;-2.000;2023-06-10T08:56:05;100383.34;;;27.61;100.00
55301;BME280;58302;51.446;-2.000;2023-06-10T08:58:32;100388.25;;;27.37;100.00
55301;BME280;58302;51.446;-2.000;2023-06-10T09:01:07;100385.47;;;26.27;100.00
55301;BME280;58302;51.446;-2.000;2023-06-10T09:03:37;100389.38;;;25.58;100.00
55301;BME280;58302;51.446;-2.000;2023-06-10T09:06:04;100386.63;;;25.03;100.00
55301;BME280;58302;51.446;-2.000;2023-06-10T09:08:31;100380.94;;;25.15;100.00
55301;BME280;58302;51.446;-2.000;2023-06-10T09:10:58;100377.00;;;25.36;100.00
55301;BME280;58302;51.446;-2.000;2023-06-10T09:13:24;100367.34;;;25.91;100.00
55301;BME280;58302;51.446;-2.000;2023-06-10T09:15:50;100375.19;;;26.09;100.00
55301;BME280;58302;51.446;-2.000;2023-06-10T09:18:17;100374.34;;;26.05;100.00
55301;BME280;58302;51.446;-2.000;2023-06-10T09:20:43;100375.94;;;26.06;100.00
55301;BME280;58302;51.446;-2.000;2023-06-10T09:23:10;100362.84;;;26.56;100.00
55301;BME280;58302;51.446;-2.000;2023-06-10T09:25:37;100373.03;;;26.71;100.00
55301;BME280;58302;51.446;-2.000;2023-06-10T09:28:04;100368.91;;;26.38;100.00
55301;BME280;58302;51.446;-2.000;2023-06-10T09:30:32;100371.78;;;26.19;100.00
55301;BME280;58302;51.446;-2.000;2023-06-10T09:33:01;100366.84;;;26.09;100.00
55301;BME280;58302;51.446;-2.000;2023-06-10T09:35:29;100367.59;;;26.06;100.00
55301;BME280;58302;51.446;-2.000;2023-06-10T09:37:57;100367.50;;;26.25;100.00
55301;BME280;58302;51.446;-2.000;2023-06-10T09:40:24;100366.31;;;26.26;100.00
55301;BME280;58302;51.446;-2.000;2023-06-10T09:42:54;100368.00;;;26.08;100.00
55301;BME280;58302;51.446;-2.000;2023-06-10T09:45:21;100354.69;;;27.00;100.00
55301;BME280;58302;51.446;-2.000;2023-06-10T09:47:51;100352.84;;;27.45;100.00
55301;BME280;58302;51.446;-2.000;2023-06-10T09:50:17;100361.53;;;27.06;100.00
55301;BME280;58302;51.446;-2.000;2023-06-10T09:52:45;100357.00;;;26.94;100.00
55301;BME280;58302;51.446;-2.000;2023-06-10T09:55:12;100350.59;;;27.20;100.00
55301;BME280;58302;51.446;-2.000;2023-06-10T09:57:38;100355.97;;;26.00;100.00
55301;BME280;58302;51.446;-2.000;2023-06-10T10:00:07;100357.94;;;25.99;100.00
55301;BME280;58302;51.446;-2.000;2023-06-10T10:02:53;100349.63;;;26.79;100.00
55301;BME280;58302;51.446;-2.000;2023-06-10T10:05:21;100345.91;;;27.69;100.00
55301;BME280;58302;51.446;-2.000;2023-06-10T10:07:48;100347.09;;;27.68;100.00
55301;BME280;58302;51.446;-2.000;2023-06-10T10:23:06;100337.25;;;28.25;100.00
55301;BME280;58302;51.446;-2.000;2023-06-10T10:25:40;100337.34;;;29.05;100.00
55301;BME280;58302;51.446;-2.000;2023-06-10T10:28:10;100335.56;;;29.77;100.00
55301;BME280;58302;51.446;-2.000;2023-06-10T10:30:59;100339.56;;;29.65;100.00
55301;BME280;58302;51.446;-2.000;2023-06-10T10:33:39;100335.88;;;29.36;100.00
55301;BME280;58302;51.446;-2.000;2023-06-10T10:36:07;100341.38;;;29.08;100.00
55301;BME280;58302;51.446;-2.000;2023-06-10T10:38:34;100334.81;;;28.79;100.00
55301;BME280;58302;51.446;-2.000;2023-06-10T10:41:02;100328.13;;;28.94;100.00
55301;BME280;58302;51.446;-2.000;2023-06-10T10:43:32;100331.97;;;29.70;100.00
55301;BME280;58302;51.446;-2.000;2023-06-10T10:46:01;100329.56;;;29.93;100.00
55301;BME280;58302;51.446;-2.000;2023-06-10T10:48:35;100330.38;;;29.97;100.00
55301;BME280;58302;51.446;-2.000;2023-06-10T10:51:02;100336.59;;;29.08;100.00
55301;BME280;58302;51.446;-2.000;2023-06-10T10:53:29;100329.16;;;29.70;100.00
55301;BME280;58302;51.446;-2.000;2023-06-10T10:56:06;100330.81;;;30.28;100.00
55301;BME280;58302;51.446;-2.000;2023-06-10T10:58:35;100318.72;;;30.49;100.00
55301;BME280;58302;51.446;-2.000;2023-06-10T11:01:10;100329.53;;;30.54;100.00
55301;BME280;58302;51.446;-2.000;2023-06-10T11:03:45;100332.22;;;31.73;100.00
55301;BME280;58302;51.446;-2.000;2023-06-10T11:06:14;100316.69;;;32.93;100.00
55301;BME280;58302;51.446;-2.000;2023-06-10T11:08:46;100323.56;;;33.76;100.00
55301;BME280;58302;51.446;-2.000;2023-06-10T11:14:06;100322.00;;;33.99;100.00
55301;BME280;58302;51.446;-2.000;2023-06-10T11:16:42;100309.59;;;33.39;100.00
55301;BME280;58302;51.446;-2.000;2023-06-10T11:19:33;100312.84;;;32.76;100.00
55301;BME280;58302;51.446;-2.000;2023-06-10T11:22:00;100309.59;;;32.77;100.00
55301;BME280;58302;51.446;-2.000;2023-06-10T11:24:29;100306.22;;;31.62;100.00
55301;BME280;58302;51.446;-2.000;2023-06-10T11:27:14;100310.19;;;31.68;100.00
55301;BME280;58302;51.446;-2.000;2023-06-10T11:30:17;100311.75;;;31.77;100.00
55301;BME280;58302;51.446;-2.000;2023-06-10T11:32:44;100305.75;;;32.19;100.00
55301;BME280;58302;51.446;-2.000;2023-06-10T11:35:10;100307.13;;;32.45;100.00
55301;BME280;58302;51.446;-2.000;2023-06-10T11:37:36;100298.47;;;32.67;100.00
55301;BME280;58302;51.446;-2.000;2023-06-10T11:40:03;100295.97;;;33.07;100.00
55301;BME280;58302;51.446;-2.000;2023-06-10T11:42:30;100298.47;;;33.01;100.00
55301;BME280;58302;51.446;-2.000;2023-06-10T11:44:59;100304.72;;;32.82;100.00
55301;BME280;58302;51.446;-2.000;2023-06-10T11:47:28;100300.31;;;32.81;100.00
55301;BME280;58302;51.446;-2.000;2023-06-10T11:49:58;100297.84;;;33.17;100.00
55301;BME280;58302;51.446;-2.000;2023-06-10T11:52:29;100303.72;;;33.56;100.00
55301;BME280;58302;51.446;-2.000;2023-06-10T11:54:57;100305.50;;;33.47;100.00
55301;BME280;58302;51.446;-2.000;2023-06-10T11:57:24;100293.06;;;33.14;100.00
55301;BME280;58302;51.446;-2.000;2023-06-10T11:59:50;100296.16;;;33.23;100.00
55301;BME280;58302;51.446;-2.000;2023-06-10T12:02:17;100296.88;;;33.58;100.00
55301;BME280;58302;51.446;-2.000;2023-06-10T12:04:45;100296.84;;;34.31;100.00
55301;BME280;58302;51.446;-2.000;2023-06-10T12:07:17;100296.00;;;34.34;100.00
55301;BME280;58302;51.446;-2.000;2023-06-10T12:09:46;100296.09;;;33.80;100.00
55301;BME280;58302;51.446;-2.000;2023-06-10T12:12:12;100294.00;;;33.61;100.00
55301;BME280;58302;51.446;-2.000;2023-06-10T12:14:55;100300.50;;;33.27;100.00
55301;BME280;58302;51.446;-2.000;2023-06-10T12:17:23;100288.75;;;32.71;100.00
55301;BME280;58302;51.446;-2.000;2023-06-10T12:19:53;100299.84;;;32.10;100.00
55301;BME280;58302;51.446;-2.000;2023-06-10T12:22:19;100296.25;;;32.06;100.00
55301;BME280;58302;51.446;-2.000;2023-06-10T12:25:00;100296.94;;;31.69;100.00
55301;BME280;58302;51.446;-2.000;2023-06-10T12:27:27;100292.38;;;31.30;100.00
55301;BME280;58302;51.446;-2.000;2023-06-10T12:29:56;100301.03;;;31.57;100.00
55301;BME280;58302;51.446;-2.000;2023-06-10T12:35:05;100287.03;;;32.02;100.00
55301;BME280;58302;51.446;-2.000;2023-06-10T12:37:32;100281.19;;;32.65;100.00
55301;BME280;58302;51.446;-2.000;2023-06-10T12:40:06;100288.00;;;33.28;100.00
55301;BME280;58302;51.446;-2.000;2023-06-10T12:42:38;100284.56;;;33.48;100.00
55301;BME280;58302;51.446;-2.000;2023-06-10T12:45:05;100284.22;;;33.42;100.00
55301;BME280;58302;51.446;-2.000;2023-06-10T12:47:37;100281.44;;;33.39;100.00
55301;BME280;58302;51.446;-2.000;2023-06-10T12:50:06;100274.91;;;33.45;100.00
55301;BME280;58302;51.446;-2.000;2023-06-10T12:52:32;100274.41;;;33.77;100.00
55301;BME280;58302;51.446;-2.000;2023-06-10T12:54:59;100265.31;;;33.90;100.00